Kaisei Maru — JD3114 — position and weather

sailwx.info

Track history (hours):
 
Tides and Currents Weather Stations Pressure Air Temp Water Temp Dewpoint Dewpoint Depression Visibility Wind Speed Wind Dir Waves Ship Positions

Kaisei Maru

Last reported at 2015-Jan-30 10:33 UTC. Time now 2015-Jan-30 10:56 UTC.
Position N 34°41' E 135°12'.

Length 52 m; draft 3 m.

Type: Tanker. MMSI: 431001837.

Date/timePositionNaut miles runAvg speedWind from/ knotsBaromVisibWave heightAir tempDewpointWater temp
2015-Jan-30 10:33N 34°41' E 135°12'0 0.0
2015-Jan-30 09:33N 34°41' E 135°12'0 0.0
2015-Jan-30 08:33N 34°41' E 135°12'0 0.0
2015-Jan-30 07:33N 34°41' E 135°12'4 3.8
2015-Jan-30 06:33N 34°42' E 135°17'0 0.0
2015-Jan-30 05:33N 34°42' E 135°17'0 0.0
2015-Jan-30 04:33N 34°42' E 135°17'5 4.7
2015-Jan-30 03:33N 34°40' E 135°12'2 1.9
2015-Jan-30 02:33N 34°39' E 135°10'0 0.0
2015-Jan-30 01:33N 34°39' E 135°10'0 0.0
2015-Jan-30 00:33N 34°39' E 135°10'0 0.0
2015-Jan-29 23:33N 34°39' E 135°10'1 0.9
2015-Jan-29 22:33N 34°38' E 135°10'6 6.0
2015-Jan-29 21:33N 34°35' E 135°04'  
2015-Jan-25 01:33N 34°37' E 135°02'1110.8
2015-Jan-25 00:33N 34°39' E 135°15'3 3.1
2015-Jan-24 23:33N 34°41' E 135°12'0 0.2
2015-Jan-24 22:33N 34°41' E 135°12'0 0.0
2015-Jan-24 21:33N 34°41' E 135°12'0 0.0
2015-Jan-24 20:33N 34°41' E 135°12'0 0.0
2015-Jan-24 19:33N 34°41' E 135°12'0 0.0
2015-Jan-24 18:33N 34°41' E 135°12'0 0.0
2015-Jan-24 17:33N 34°41' E 135°12'0 0.0
2015-Jan-24 16:33N 34°41' E 135°12'0 0.0
2015-Jan-24 15:33N 34°41' E 135°12'0 0.0
2015-Jan-24 14:33N 34°41' E 135°12'0 0.0
2015-Jan-24 13:33N 34°41' E 135°12'0 0.0
2015-Jan-24 12:33N 34°41' E 135°12'0 0.0
2015-Jan-24 11:33N 34°41' E 135°12'0 0.0
2015-Jan-24 10:33N 34°41' E 135°12'0 0.0
2015-Jan-24 09:33N 34°41' E 135°12'0 0.0
2015-Jan-24 08:33N 34°41' E 135°12'0 0.0
2015-Jan-24 07:33N 34°41' E 135°12'0 0.0
2015-Jan-24 06:33N 34°41' E 135°12'7 7.0
2015-Jan-24 05:33N 34°36' E 135°18'7 3.7
2015-Jan-24 03:33N 34°31' E 135°25'0 0.0
2015-Jan-24 02:11N 34°31' E 135°25'0 0.0
2015-Jan-24 01:23N 34°31' E 135°25'0 0.0
2015-Jan-24 00:09N 34°31' E 135°25'0 0.0
2015-Jan-23 23:03N 34°31' E 135°25'3 6.6
2015-Jan-23 22:33N 34°33' E 135°21'9 8.8
2015-Jan-23 21:33N 34°40' E 135°15'3 2.6
2015-Jan-23 20:33N 34°41' E 135°12'0 0.0
2015-Jan-23 19:33N 34°41' E 135°12'0 0.0
2015-Jan-23 18:33N 34°41' E 135°12'0 0.0
2015-Jan-23 17:33N 34°41' E 135°12'0 0.0
2015-Jan-23 16:33N 34°41' E 135°12'0 0.0
2015-Jan-23 15:33N 34°41' E 135°12'0 0.0
2015-Jan-23 14:33N 34°41' E 135°12'0 0.0
2015-Jan-23 13:33N 34°41' E 135°12'0 0.0
2015-Jan-23 12:33N 34°41' E 135°12'0 0.0
2015-Jan-23 11:33N 34°41' E 135°12'0 0.0
2015-Jan-23 10:33N 34°41' E 135°12'0 0.0
2015-Jan-23 09:33N 34°41' E 135°12'0 0.5
2015-Jan-23 08:33N 34°41' E 135°13'4 4.2
2015-Jan-23 07:33N 34°40' E 135°18'0 0.0
2015-Jan-23 06:33N 34°40' E 135°18'0 0.0
2015-Jan-23 05:33N 34°40' E 135°18'1 0.6
2015-Jan-23 04:33N 34°39' E 135°18'1 1.2
2015-Jan-23 03:33N 34°40' E 135°18'5 4.7
2015-Jan-23 02:33N 34°41' E 135°12'0 0.0
2015-Jan-23 01:33N 34°41' E 135°12'0 0.0
2015-Jan-23 00:33N 34°41' E 135°12'0 0.0
2015-Jan-22 23:34N 34°41' E 135°12'0 0.0
2015-Jan-22 22:33N 34°41' E 135°12'0 0.0
2015-Jan-22 21:33N 34°41' E 135°12'0 0.0
2015-Jan-22 20:33N 34°41' E 135°12'0 0.0
2015-Jan-22 19:33N 34°41' E 135°12'0 0.0
2015-Jan-22 18:33N 34°41' E 135°12'0 0.0
2015-Jan-22 17:33N 34°41' E 135°12'0 0.0
2015-Jan-22 16:33N 34°41' E 135°12'0 0.0
2015-Jan-22 15:33N 34°41' E 135°12'0 0.0
2015-Jan-22 14:33N 34°41' E 135°12'0 0.0
2015-Jan-22 13:33N 34°41' E 135°12'0 0.0
2015-Jan-22 12:33N 34°41' E 135°12'0 0.0
2015-Jan-22 11:33N 34°41' E 135°12'0 0.0
2015-Jan-22 10:33N 34°41' E 135°12'0 0.4
2015-Jan-22 09:33N 34°41' E 135°13'1010.0
2015-Jan-22 08:33N 34°34' E 135°21'2 0.2
2015-Jan-21 22:50N 34°32' E 135°23'1 8.4
2015-Jan-21 22:46N 34°33' E 135°23'2 9.3
2015-Jan-21 22:33N 34°33' E 135°21'9 9.4
2015-Jan-21 21:33N 34°41' E 135°14'1 1.2
2015-Jan-21 20:33N 34°41' E 135°12'0 0.0
2015-Jan-21 19:33N 34°41' E 135°12'0 0.0
2015-Jan-21 18:33N 34°41' E 135°12'0 0.0
2015-Jan-21 17:33N 34°41' E 135°12'0 0.0
2015-Jan-21 16:33N 34°41' E 135°12'0 0.0
2015-Jan-21 15:33N 34°41' E 135°12'0 0.0
2015-Jan-21 14:33N 34°41' E 135°12'0 0.0
2015-Jan-21 13:33N 34°41' E 135°12'0 0.0
2015-Jan-21 12:33N 34°41' E 135°12'0 0.0
2015-Jan-21 11:33N 34°41' E 135°12'0 0.0
2015-Jan-21 10:33N 34°41' E 135°12'0 0.0
2015-Jan-21 09:27N 34°41' E 135°12'6 6.8
2015-Jan-21 08:33N 34°41' E 135°20'5 0.7
2015-Jan-21 00:33N 34°39' E 135°26'1110.6
2015-Jan-20 23:33N 34°35' E 135°14'10 9.5
2015-Jan-20 22:33N 34°36' E 135°02'  
Track history (hours):
 
Tides and Currents Weather Stations Pressure Air Temp Water Temp Dewpoint Dewpoint Depression Visibility Wind Speed Wind Dir Waves Ship Positions

Kaisei Maru

Last reported at 2015-Jan-30 10:33 UTC. Time now 2015-Jan-30 10:56 UTC.
Position N 34°41' E 135°12'.

Length 52 m; draft 3 m.

Type: Tanker. MMSI: 431001837.

Date/timePositionNaut miles runAvg speedWind from/ knotsBaromVisibWave heightAir tempDewpointWater temp
2015-Jan-30 10:33N 34°41' E 135°12'0 0.0
2015-Jan-30 09:33N 34°41' E 135°12'0 0.0
2015-Jan-30 08:33N 34°41' E 135°12'0 0.0
2015-Jan-30 07:33N 34°41' E 135°12'4 3.8
2015-Jan-30 06:33N 34°42' E 135°17'0 0.0
2015-Jan-30 05:33N 34°42' E 135°17'0 0.0
2015-Jan-30 04:33N 34°42' E 135°17'5 4.7
2015-Jan-30 03:33N 34°40' E 135°12'2 1.9
2015-Jan-30 02:33N 34°39' E 135°10'0 0.0
2015-Jan-30 01:33N 34°39' E 135°10'0 0.0
2015-Jan-30 00:33N 34°39' E 135°10'0 0.0
2015-Jan-29 23:33N 34°39' E 135°10'1 0.9
2015-Jan-29 22:33N 34°38' E 135°10'6 6.0
2015-Jan-29 21:33N 34°35' E 135°04'  
2015-Jan-25 01:33N 34°37' E 135°02'1110.8
2015-Jan-25 00:33N 34°39' E 135°15'3 3.1
2015-Jan-24 23:33N 34°41' E 135°12'0 0.2
2015-Jan-24 22:33N 34°41' E 135°12'0 0.0
2015-Jan-24 21:33N 34°41' E 135°12'0 0.0
2015-Jan-24 20:33N 34°41' E 135°12'0 0.0
2015-Jan-24 19:33N 34°41' E 135°12'0 0.0
2015-Jan-24 18:33N 34°41' E 135°12'0 0.0
2015-Jan-24 17:33N 34°41' E 135°12'0 0.0
2015-Jan-24 16:33N 34°41' E 135°12'0 0.0
2015-Jan-24 15:33N 34°41' E 135°12'0 0.0
2015-Jan-24 14:33N 34°41' E 135°12'0 0.0
2015-Jan-24 13:33N 34°41' E 135°12'0 0.0
2015-Jan-24 12:33N 34°41' E 135°12'0 0.0
2015-Jan-24 11:33N 34°41' E 135°12'0 0.0
2015-Jan-24 10:33N 34°41' E 135°12'0 0.0
2015-Jan-24 09:33N 34°41' E 135°12'0 0.0
2015-Jan-24 08:33N 34°41' E 135°12'0 0.0
2015-Jan-24 07:33N 34°41' E 135°12'0 0.0
2015-Jan-24 06:33N 34°41' E 135°12'7 7.0
2015-Jan-24 05:33N 34°36' E 135°18'7 3.7
2015-Jan-24 03:33N 34°31' E 135°25'0 0.0
2015-Jan-24 02:11N 34°31' E 135°25'0 0.0
2015-Jan-24 01:23N 34°31' E 135°25'0 0.0
2015-Jan-24 00:09N 34°31' E 135°25'0 0.0
2015-Jan-23 23:03N 34°31' E 135°25'3 6.6
2015-Jan-23 22:33N 34°33' E 135°21'9 8.8
2015-Jan-23 21:33N 34°40' E 135°15'3 2.6
2015-Jan-23 20:33N 34°41' E 135°12'0 0.0
2015-Jan-23 19:33N 34°41' E 135°12'0 0.0
2015-Jan-23 18:33N 34°41' E 135°12'0 0.0
2015-Jan-23 17:33N 34°41' E 135°12'0 0.0
2015-Jan-23 16:33N 34°41' E 135°12'0 0.0
2015-Jan-23 15:33N 34°41' E 135°12'0 0.0
2015-Jan-23 14:33N 34°41' E 135°12'0 0.0
2015-Jan-23 13:33N 34°41' E 135°12'0 0.0
2015-Jan-23 12:33N 34°41' E 135°12'0 0.0
2015-Jan-23 11:33N 34°41' E 135°12'0 0.0
2015-Jan-23 10:33N 34°41' E 135°12'0 0.0
2015-Jan-23 09:33N 34°41' E 135°12'0 0.5
2015-Jan-23 08:33N 34°41' E 135°13'4 4.2
2015-Jan-23 07:33N 34°40' E 135°18'0 0.0
2015-Jan-23 06:33N 34°40' E 135°18'0 0.0
2015-Jan-23 05:33N 34°40' E 135°18'1 0.6
2015-Jan-23 04:33N 34°39' E 135°18'1 1.2
2015-Jan-23 03:33N 34°40' E 135°18'5 4.7
2015-Jan-23 02:33N 34°41' E 135°12'0 0.0
2015-Jan-23 01:33N 34°41' E 135°12'0 0.0
2015-Jan-23 00:33N 34°41' E 135°12'0 0.0
2015-Jan-22 23:34N 34°41' E 135°12'0 0.0
2015-Jan-22 22:33N 34°41' E 135°12'0 0.0
2015-Jan-22 21:33N 34°41' E 135°12'0 0.0
2015-Jan-22 20:33N 34°41' E 135°12'0 0.0
2015-Jan-22 19:33N 34°41' E 135°12'0 0.0
2015-Jan-22 18:33N 34°41' E 135°12'0 0.0
2015-Jan-22 17:33N 34°41' E 135°12'0 0.0
2015-Jan-22 16:33N 34°41' E 135°12'0 0.0
2015-Jan-22 15:33N 34°41' E 135°12'0 0.0
2015-Jan-22 14:33N 34°41' E 135°12'0 0.0
2015-Jan-22 13:33N 34°41' E 135°12'0 0.0
2015-Jan-22 12:33N 34°41' E 135°12'0 0.0
2015-Jan-22 11:33N 34°41' E 135°12'0 0.0
2015-Jan-22 10:33N 34°41' E 135°12'0 0.4
2015-Jan-22 09:33N 34°41' E 135°13'1010.0
2015-Jan-22 08:33N 34°34' E 135°21'2 0.2
2015-Jan-21 22:50N 34°32' E 135°23'1 8.4
2015-Jan-21 22:46N 34°33' E 135°23'2 9.3
2015-Jan-21 22:33N 34°33' E 135°21'9 9.4
2015-Jan-21 21:33N 34°41' E 135°14'1 1.2
2015-Jan-21 20:33N 34°41' E 135°12'0 0.0
2015-Jan-21 19:33N 34°41' E 135°12'0 0.0
2015-Jan-21 18:33N 34°41' E 135°12'0 0.0
2015-Jan-21 17:33N 34°41' E 135°12'0 0.0
2015-Jan-21 16:33N 34°41' E 135°12'0 0.0
2015-Jan-21 15:33N 34°41' E 135°12'0 0.0
2015-Jan-21 14:33N 34°41' E 135°12'0 0.0
2015-Jan-21 13:33N 34°41' E 135°12'0 0.0
2015-Jan-21 12:33N 34°41' E 135°12'0 0.0
2015-Jan-21 11:33N 34°41' E 135°12'0 0.0
2015-Jan-21 10:33N 34°41' E 135°12'0 0.0
2015-Jan-21 09:27N 34°41' E 135°12'6 6.8
2015-Jan-21 08:33N 34°41' E 135°20'5 0.7
2015-Jan-21 00:33N 34°39' E 135°26'1110.6
2015-Jan-20 23:33N 34°35' E 135°14'10 9.5
2015-Jan-20 22:33N 34°36' E 135°02'  

Dump ship's entire track history